Time;durP1;ratioP1;P1;durP2;ratioP2;P2;SDS_P1;SDS_P2;PMS_P1;PMS_P2;Temp;Humidity;BMP_temperature;BMP_pressure;BME280_temperature;BME280_humidity;BME280_pressure;Samples;Min_cycle;Max_cycle;Signal;HPM_P1;HPM_P2
2021/09/05 00:01:21;;;;;;;5.67;4.90;;;12.10;99.90;11.70;97072.00;;;;4929893;29;20244;-66
2021/09/05 00:04:10;;;;;;;6.87;5.43;;;12.00;99.90;11.70;97074.00;;;;4931461;29;20707;-68
2021/09/05 00:07:00;;;;;;;13.97;6.70;;;12.00;99.90;11.90;97074.00;;;;4929233;29;20224;-67
2021/09/05 00:09:49;;;;;;;9.70;6.43;;;12.00;99.90;12.00;97074.00;;;;4930726;29;20213;-68
2021/09/05 00:12:38;;;;;;;8.13;6.03;;;12.00;99.90;12.00;97065.00;;;;4930850;29;20599;-67
2021/09/05 00:15:27;;;;;;;7.53;5.30;;;11.70;99.90;11.60;97071.00;;;;4930543;29;20247;-67
2021/09/05 00:18:16;;;;;;;7.57;5.87;;;12.00;99.90;11.50;97061.00;;;;4918124;29;20582;-67
2021/09/05 00:21:05;;;;;;;7.40;5.83;;;11.90;99.90;11.60;97061.00;;;;4929660;29;20243;-66
2021/09/05 00:23:55;;;;;;;8.57;6.00;;;11.90;99.90;11.60;97073.00;;;;4928040;29;20213;-67
2021/09/05 00:26:46;;;;;;;6.30;5.27;;;11.80;99.90;11.70;97076.00;;;;4930055;29;20673;-67
2021/09/05 00:29:35;;;;;;;6.83;5.33;;;11.80;99.90;11.80;97069.00;;;;4928956;29;20208;-67
2021/09/05 00:32:24;;;;;;;7.97;6.37;;;11.80;99.90;11.70;97072.00;;;;4930210;29;20232;-68
2021/09/05 00:35:14;;;;;;;7.07;5.97;;;11.80;99.90;11.70;97067.00;;;;4930670;29;20236;-67
2021/09/05 00:38:03;;;;;;;7.23;5.70;;;11.80;99.90;11.60;97071.00;;;;4929540;29;20209;-67
2021/09/05 00:40:53;;;;;;;11.23;6.73;;;11.80;99.90;11.60;97061.00;;;;4929560;29;20232;-66
2021/09/05 00:44:03;;;;;;;6.57;5.43;;;11.70;99.90;11.60;97063.00;;;;4930458;29;20212;-67
2021/09/05 00:46:52;;;;;;;6.80;5.30;;;11.70;99.90;11.60;97066.00;;;;4928823;29;20204;-66
2021/09/05 00:49:41;;;;;;;6.93;6.20;;;11.70;99.90;11.60;97056.00;;;;4920093;29;20209;-67
2021/09/05 00:52:30;;;;;;;8.17;6.37;;;11.70;99.90;11.60;97060.00;;;;4923351;29;20577;-67
2021/09/05 00:55:18;;;;;;;8.37;5.93;;;11.70;99.90;11.60;97055.00;;;;4929809;29;20228;-66
2021/09/05 00:58:09;;;;;;;6.83;5.77;;;11.70;99.90;11.50;97057.00;;;;4928651;29;20205;-66
2021/09/05 01:00:59;;;;;;;9.37;7.10;;;11.70;99.90;11.60;97064.00;;;;4929074;29;20252;-67
2021/09/05 01:03:47;;;;;;;9.03;7.07;;;11.70;99.90;11.60;97062.00;;;;4930295;29;20212;-67
2021/09/05 01:06:40;;;;;;;10.10;6.77;;;11.70;99.90;11.70;97072.00;;;;4927027;29;20205;-66
2021/09/05 01:09:30;;;;;;;7.90;6.57;;;11.60;99.90;11.50;97055.00;;;;4929632;29;20201;-67
2021/09/05 01:12:19;;;;;;;10.23;6.43;;;11.60;99.90;11.30;97065.00;;;;4919347;29;20232;-67
2021/09/05 01:15:10;;;;;;;9.10;6.03;;;11.60;99.90;11.20;97066.00;;;;4929214;29;20794;-67
2021/09/05 01:17:59;;;;;;;7.77;5.97;;;11.50;99.90;10.90;97067.00;;;;4927590;29;20217;-67
2021/09/05 01:20:48;;;;;;;6.60;5.43;;;11.40;99.90;11.00;97070.00;;;;4929340;29;20232;-67
2021/09/05 01:23:36;;;;;;;6.60;6.00;;;11.30;99.90;11.00;97071.00;;;;4929495;29;20216;-68
2021/09/05 01:26:27;;;;;;;9.47;5.23;;;11.20;99.90;11.00;97081.00;;;;4928713;29;20201;-67
2021/09/05 01:29:18;;;;;;;7.10;5.70;;;11.20;99.90;11.10;97066.00;;;;4929048;29;20208;-66
2021/09/05 01:32:08;;;;;;;9.80;5.67;;;11.20;99.90;11.10;97068.00;;;;4929218;29;20220;-67
2021/09/05 01:34:58;;;;;;;6.77;5.13;;;11.20;99.90;11.00;97067.00;;;;4928068;29;20217;-67
2021/09/05 01:37:48;;;;;;;7.23;5.37;;;11.20;99.90;11.00;97071.00;;;;4928905;29;20216;-68
2021/09/05 01:40:37;;;;;;;7.17;6.20;;;11.20;99.90;11.10;97077.00;;;;4929431;29;20219;-67
2021/09/05 01:43:26;;;;;;;7.37;6.20;;;11.20;99.90;11.10;97069.00;;;;4928892;29;20216;-65
2021/09/05 01:46:16;;;;;;;8.77;6.00;;;11.20;99.90;11.20;97077.00;;;;4919093;29;20236;-67
2021/09/05 01:49:06;;;;;;;7.17;5.77;;;11.20;99.90;11.20;97088.00;;;;4925489;29;20221;-68
2021/09/05 01:51:55;;;;;;;7.70;5.67;;;11.30;99.90;11.30;97075.00;;;;4924417;29;20239;-67
2021/09/05 01:54:44;;;;;;;7.73;6.00;;;11.30;99.90;11.20;97079.00;;;;4929963;29;20209;-67
2021/09/05 01:57:32;;;;;;;6.30;5.70;;;11.30;99.90;10.80;97076.00;;;;4929159;29;20212;-66
2021/09/05 02:00:21;;;;;;;6.63;5.50;;;11.20;99.90;10.70;97073.00;;;;4929046;29;20217;-68
2021/09/05 02:03:12;;;;;;;7.10;5.83;;;11.10;99.90;10.50;97077.00;;;;4929256;29;20213;-67
2021/09/05 02:06:01;;;;;;;8.20;5.83;;;11.00;99.90;10.50;97080.00;;;;4929411;29;20236;-67
2021/09/05 02:08:50;;;;;;;7.60;5.23;;;10.90;99.90;10.60;97076.00;;;;4927529;29;20317;-67
2021/09/05 02:11:39;;;;;;;9.73;5.77;;;10.80;99.90;10.70;97070.00;;;;4927596;29;20229;-68
2021/09/05 02:14:27;;;;;;;7.43;6.40;;;10.80;99.90;10.80;97068.00;;;;4929297;29;20689;-67
2021/09/05 02:17:16;;;;;;;7.03;5.13;;;10.80;99.90;10.50;97076.00;;;;4928800;29;20558;-67
2021/09/05 02:20:08;;;;;;;5.50;4.80;;;10.80;99.90;10.20;97078.00;;;;4928854;29;20220;-67
2021/09/05 02:22:57;;;;;;;9.10;5.37;;;10.70;99.90;10.20;97080.00;;;;4928540;29;20219;-66
2021/09/05 02:25:46;;;;;;;8.23;7.00;;;10.60;99.90;10.00;97076.00;;;;4927958;29;20426;-67
2021/09/05 02:28:35;;;;;;;7.47;6.70;;;10.50;99.90;10.10;97079.00;;;;4926095;29;20407;-67
2021/09/05 02:31:23;;;;;;;;;;;10.50;99.90;10.10;97079.00;;;;4927720;29;20268;-67
2021/09/05 02:34:12;;;;;;;;;;;10.40;99.90;10.30;97083.00;;;;4928795;29;19923;-67
2021/09/05 02:37:02;;;;;;;;;;;10.40;99.90;10.40;97082.00;;;;4928558;29;19922;-67
2021/09/05 02:39:50;;;;;;;;;;;10.40;99.90;10.50;97084.00;;;;4918323;29;20318;-67
2021/09/05 02:42:39;;;;;;;;;;;10.50;99.90;10.70;97085.00;;;;4927372;29;20413;-67
2021/09/05 02:45:28;;;;;;;;;;;10.50;99.90;10.60;97082.00;;;;4928498;29;19938;-66
2021/09/05 02:48:16;;;;;;;;;;;10.60;99.90;10.40;97092.00;;;;4927899;29;19922;-67
2021/09/05 02:51:05;;;;;;;;;;;10.60;99.90;10.40;97073.00;;;;4919081;29;20394;-67
2021/09/05 02:53:56;;;;;;;;;;;10.60;99.90;10.30;97083.00;;;;4932131;29;19922;-67
2021/09/05 02:56:45;;;;;;;8.40;5.37;;;10.60;99.90;10.30;97080.00;;;;4930282;29;20213;-67
2021/09/05 02:59:34;;;;;;;7.07;5.43;;;10.50;99.90;10.10;97078.00;;;;4931577;29;20684;-66
2021/09/05 03:02:23;;;;;;;5.90;5.30;;;10.50;99.90;10.10;97075.00;;;;4902769;29;20615;-66
2021/09/05 03:05:12;;;;;;;11.10;6.13;;;10.40;99.90;10.10;97086.00;;;;4931194;29;20589;-66
2021/09/05 03:08:01;;;;;;;9.17;6.10;;;10.30;99.90;10.30;97079.00;;;;4930390;29;20243;-66
2021/09/05 03:10:51;;;;;;;6.17;5.10;;;10.40;99.90;10.20;97073.00;;;;4931589;29;20604;-66
2021/09/05 03:13:42;;;;;;;6.87;6.17;;;10.40;99.90;10.40;97077.00;;;;4931476;29;20224;-65
2021/09/05 03:16:30;;;;;;;6.80;5.67;;;10.50;99.90;10.10;97073.00;;;;4931345;29;20201;-67
2021/09/05 03:19:19;;;;;;;;;;;10.40;99.90;9.50;97077.00;;;;4932488;29;20054;-65
2021/09/05 03:22:08;;;;;;;8.00;7.15;;;10.20;99.90;9.60;97067.00;;;;4930972;29;20417;-64
2021/09/05 03:24:57;;;;;;;8.33;7.47;;;10.10;99.90;9.80;97081.00;;;;4930798;29;20213;-67
2021/09/05 03:27:47;;;;;;;8.77;6.13;;;10.10;99.90;9.90;97091.00;;;;4931174;29;20711;-67
2021/09/05 03:30:37;;;;;;;7.77;5.23;;;10.10;99.90;9.90;97089.00;;;;4931772;29;20209;-67
2021/09/05 03:33:25;;;;;;;6.77;6.00;;;10.10;99.90;10.10;97089.00;;;;4931395;29;20574;-67
2021/09/05 03:36:14;;;;;;;7.73;5.80;;;10.20;99.90;9.90;97082.00;;;;4930842;29;20208;-67
2021/09/05 03:39:03;;;;;;;7.17;5.63;;;10.20;99.90;9.70;97073.00;;;;4930002;29;20215;-66
2021/09/05 03:41:52;;;;;;;7.33;5.50;;;10.10;99.90;9.50;97077.00;;;;4930614;29;20232;-67
2021/09/05 03:44:42;;;;;;;9.47;7.23;;;10.10;99.90;9.60;97076.00;;;;4931710;29;20287;-67
2021/09/05 03:47:31;;;;;;;11.03;7.23;;;10.00;99.90;9.60;97084.00;;;;4930340;29;20227;-66
2021/09/05 03:50:20;;;;;;;10.97;5.77;;;10.00;99.90;9.60;97081.00;;;;4921634;29;20546;-66
2021/09/05 03:53:09;;;;;;;8.60;6.80;;;10.00;99.90;9.80;97086.00;;;;4930130;29;20676;-66
2021/09/05 03:55:58;;;;;;;6.60;5.50;;;10.00;99.90;9.80;97092.00;;;;4921764;29;20220;-66
2021/09/05 03:58:47;;;;;;;8.53;6.97;;;10.00;99.90;10.00;97096.00;;;;4929057;29;20205;-66
2021/09/05 04:01:37;;;;;;;7.10;5.50;;;10.00;99.90;10.10;97096.00;;;;4926721;29;20248;-67
2021/09/05 04:04:26;;;;;;;6.40;5.60;;;10.10;99.90;10.00;97098.00;;;;4923226;29;20630;-67
2021/09/05 04:07:18;;;;;;;7.37;5.97;;;10.20;99.90;9.90;97097.00;;;;4918575;29;20224;-68
2021/09/05 04:10:10;;;;;;;44.63;36.63;;;10.20;99.90;9.90;97099.00;;;;4930340;29;20216;-67
2021/09/05 04:12:59;;;;;;;18.53;14.80;;;10.20;99.90;10.20;97097.00;;;;4930973;29;20625;-67
2021/09/05 04:15:48;;;;;;;12.37;9.83;;;10.20;99.90;10.50;97096.00;;;;4931234;29;20217;-66
2021/09/05 04:18:38;;;;;;;9.97;7.60;;;10.30;99.90;10.40;97105.00;;;;4929907;29;20223;-68
2021/09/05 04:21:27;;;;;;;8.53;6.10;;;10.40;99.90;10.30;97114.00;;;;4929897;29;20255;-68
2021/09/05 04:24:16;;;;;;;7.13;6.10;;;10.40;99.90;10.30;97115.00;;;;4930092;29;20216;-68
2021/09/05 04:27:07;;;;;;;6.70;5.40;;;10.40;99.90;10.30;97114.00;;;;4929001;29;20224;-67
2021/09/05 04:29:56;;;;;;;7.13;5.07;;;10.40;99.90;10.10;97113.00;;;;4929988;29;20208;-68
2021/09/05 04:32:45;;;;;;;8.83;7.13;;;10.40;99.90;10.20;97126.00;;;;4930210;29;20235;-67
2021/09/05 04:35:35;;;;;;;6.50;5.33;;;10.40;99.90;10.20;97108.00;;;;4925395;29;20201;-67
2021/09/05 04:38:24;;;;;;;6.87;5.63;;;10.40;99.90;10.20;97135.00;;;;4930150;29;20208;-67
2021/09/05 04:41:12;;;;;;;8.10;5.53;;;10.40;99.90;9.90;97138.00;;;;4930445;29;20390;-64
2021/09/05 04:44:01;;;;;;;6.83;5.20;;;10.30;99.90;10.00;97140.00;;;;4929599;29;20283;-67
2021/09/05 04:46:50;;;;;;;8.87;5.80;;;10.30;99.90;9.90;97141.00;;;;4930213;29;20213;-67
2021/09/05 04:49:39;;;;;;;8.17;6.53;;;10.20;99.90;10.00;97149.00;;;;4921912;29;20614;-68
2021/09/05 04:52:29;;;;;;;9.27;6.13;;;10.20;99.90;9.90;97153.00;;;;4918231;29;20237;-67
2021/09/05 04:55:18;;;;;;;8.90;6.77;;;10.20;99.90;10.10;97157.00;;;;4930180;29;20229;-67
2021/09/05 04:58:07;;;;;;;8.20;5.77;;;10.20;99.90;9.90;97150.00;;;;4929846;29;20208;-67
2021/09/05 05:00:56;;;;;;;9.07;7.30;;;10.20;99.90;10.10;97152.00;;;;4928116;29;20622;-66
2021/09/05 05:03:45;;;;;;;7.50;6.67;;;10.30;99.90;10.10;97145.00;;;;4929275;29;20719;-67
2021/09/05 05:06:47;;;;;;;11.50;5.97;;;10.40;99.90;10.10;97150.00;;;;4927794;29;20219;-68
2021/09/05 05:09:43;;;;;;;8.57;6.17;;;11.20;99.90;10.10;97147.00;;;;4930642;28;20344;-66
2021/09/05 05:12:32;;;;;;;6.23;5.37;;;10.40;99.90;10.20;97163.00;;;;4928869;29;20241;-68
2021/09/05 05:15:21;;;;;;;7.67;6.87;;;10.40;99.90;10.20;97168.00;;;;4928652;29;20215;-67
2021/09/05 05:18:10;;;;;;;8.63;6.00;;;10.50;99.90;10.20;97161.00;;;;4928603;29;20691;-68
2021/09/05 05:20:59;;;;;;;10.27;6.30;;;10.50;99.90;10.20;97164.00;;;;4929301;29;20239;-67
2021/09/05 05:23:48;;;;;;;7.10;6.30;;;10.50;99.90;10.30;97171.00;;;;4929031;29;20205;-68
2021/09/05 05:26:38;;;;;;;7.23;5.87;;;10.60;99.90;10.60;97173.00;;;;4929884;29;20215;-67
2021/09/05 05:29:27;;;;;;;6.97;6.27;;;10.70;99.90;10.80;97175.00;;;;4928602;29;20243;-66
2021/09/05 05:32:16;;;;;;;7.70;6.27;;;10.80;99.90;11.00;97176.00;;;;4928522;29;20224;-66
2021/09/05 05:35:06;;;;;;;8.37;6.47;;;10.90;99.90;10.80;97172.00;;;;4929832;29;20212;-66
2021/09/05 05:37:56;;;;;;;8.17;6.57;;;10.90;99.90;10.90;97175.00;;;;4929177;29;20215;-67
2021/09/05 05:40:44;;;;;;;7.37;5.40;;;11.00;99.90;10.90;97179.00;;;;4927935;29;20456;-68
2021/09/05 05:43:35;;;;;;;10.17;5.90;;;11.10;99.90;11.20;97177.00;;;;4928278;29;20208;-66
2021/09/05 05:46:24;;;;;;;6.77;5.90;;;11.10;99.90;11.10;97180.00;;;;4928506;29;20212;-67
2021/09/05 05:49:13;;;;;;;6.63;5.73;;;11.20;99.90;11.30;97177.00;;;;4913041;29;20229;-67
2021/09/05 05:52:02;;;;;;;8.27;5.70;;;11.30;99.90;11.30;97179.00;;;;4926538;29;20225;-66
2021/09/05 05:54:51;;;;;;;7.63;6.20;;;12.80;99.90;11.40;97181.00;;;;4928875;29;20209;-67
2021/09/05 05:57:40;;;;;;;7.83;5.63;;;11.40;99.90;11.60;97179.00;;;;4929279;29;20216;-66
2021/09/05 06:00:31;;;;;;;7.70;6.00;;;11.50;99.90;11.80;97186.00;;;;4915440;29;20681;-67
2021/09/05 06:03:21;;;;;;;8.10;6.07;;;11.70;99.90;12.00;97180.00;;;;4921556;29;20264;-67
2021/09/05 06:06:10;;;;;;;6.30;5.43;;;11.70;99.90;12.10;97184.00;;;;4920645;29;20212;-67
2021/09/05 06:08:59;;;;;;;8.40;6.67;;;11.90;99.90;12.00;97187.00;;;;4928061;29;20224;-67
2021/09/05 06:11:47;;;;;;;8.43;5.77;;;12.00;99.90;12.10;97183.00;;;;4925250;29;20236;-67
2021/09/05 06:14:37;;;;;;;6.33;5.30;;;12.10;99.90;12.30;97179.00;;;;4929057;29;20212;-68
2021/09/05 06:17:27;;;;;;;8.63;6.50;;;12.20;99.90;12.50;97179.00;;;;4927963;29;20205;-67
2021/09/05 06:20:16;;;;;;;7.10;5.77;;;12.30;99.90;12.90;97185.00;;;;4927225;29;20231;-67
2021/09/05 06:23:05;;;;;;;9.00;6.50;;;12.50;99.90;13.00;97182.00;;;;4928231;29;20216;-67
2021/09/05 06:25:54;;;;;;;10.13;5.93;;;12.70;99.90;13.10;97187.00;;;;4929623;29;20220;-66
2021/09/05 06:28:42;;;;;;;7.13;5.73;;;12.80;99.90;13.40;97188.00;;;;4932401;29;20711;-67
2021/09/05 06:31:31;;;;;;;8.13;6.23;;;13.00;99.90;13.40;97190.00;;;;4919405;29;20247;-68
2021/09/05 06:34:21;;;;;;;8.23;5.97;;;13.20;99.90;13.60;97192.00;;;;4932235;29;20590;-68
2021/09/05 06:37:10;;;;;;;9.57;6.20;;;13.30;99.90;13.90;97186.00;;;;4931003;29;20583;-68
2021/09/05 06:39:59;;;;;;;8.03;5.87;;;13.50;99.90;14.20;97195.00;;;;4932253;29;20209;-68
2021/09/05 06:42:48;;;;;;;9.07;6.37;;;13.70;99.90;14.20;97198.00;;;;4920223;29;20736;-67
2021/09/05 06:45:37;;;;;;;6.57;5.77;;;13.90;99.90;14.40;97198.00;;;;4931800;29;20200;-68
2021/09/05 06:48:26;;;;;;;7.47;5.70;;;14.00;99.90;14.50;97204.00;;;;4932172;29;20742;-67
2021/09/05 06:51:16;;;;;;;8.80;6.47;;;14.20;99.90;14.60;97209.00;;;;4930832;29;20612;-67
2021/09/05 06:54:05;;;;;;;6.87;5.17;;;14.30;99.90;14.70;97206.00;;;;4929228;29;20232;-67
2021/09/05 06:56:54;;;;;;;8.27;5.93;;;14.40;99.90;15.00;97218.00;;;;4919782;29;20617;-66
2021/09/05 06:59:42;;;;;;;6.33;5.40;;;14.50;99.90;15.30;97209.00;;;;4929086;29;20228;-66
2021/09/05 07:02:31;;;;;;;;;;;14.60;99.90;15.00;97219.00;;;;4930729;29;20046;-68
2021/09/05 07:05:20;;;;;;;6.57;5.93;;;14.80;99.90;14.80;97213.00;;;;4930257;29;20414;-67
2021/09/05 07:08:11;;;;;;;6.47;5.37;;;14.80;99.90;15.30;97205.00;;;;4918372;29;20633;-67
2021/09/05 07:11:00;;;;;;;8.90;5.57;;;14.90;99.90;15.20;97208.00;;;;4930557;29;20231;-66
2021/09/05 07:13:49;;;;;;;7.07;5.80;;;15.10;99.90;15.60;97207.00;;;;4932155;29;20209;-66
2021/09/05 07:16:38;;;;;;;6.50;5.87;;;15.20;99.90;16.00;97204.00;;;;4930752;29;20209;-68
2021/09/05 07:19:27;;;;;;;7.17;5.63;;;15.40;99.90;16.40;97212.00;;;;4931117;29;20212;-67
2021/09/05 07:22:16;;;;;;;7.37;4.77;;;15.70;99.90;16.80;97225.00;;;;4931631;29;20233;-68
2021/09/05 07:25:08;;;;;;;6.70;5.27;;;16.00;99.90;16.90;97223.00;;;;4931388;29;20204;-66
2021/09/05 07:27:56;;;;;;;7.13;5.10;;;16.30;99.90;17.40;97223.00;;;;4929820;29;20215;-67
2021/09/05 07:30:45;;;;;;;11.87;5.07;;;16.60;99.90;17.60;97238.00;;;;4930176;29;20757;-66
2021/09/05 07:33:34;;;;;;;7.00;5.37;;;16.80;99.90;17.60;97252.00;;;;4926367;29;20204;-67
2021/09/05 07:36:23;;;;;;;;;;;16.90;99.90;17.60;97236.00;;;;4928788;29;20078;-68
2021/09/05 07:39:12;;;;;;;7.53;4.77;;;17.10;99.90;17.90;97233.00;;;;4922744;29;20218;-67
2021/09/05 07:42:02;;;;;;;;;;;17.20;99.90;18.10;97259.00;;;;4931166;29;20051;-68
2021/09/05 07:44:51;;;;;;;;;;;17.40;99.90;18.20;97255.00;;;;4931624;29;19937;-68
2021/09/05 07:47:39;;;;;;;;;;;17.50;99.90;18.60;97258.00;;;;4931231;29;19938;-66
2021/09/05 07:50:28;;;;;;;;;;;17.70;99.90;18.80;97248.00;;;;4926567;29;19945;-67
2021/09/05 07:53:17;;;;;;;;;;;17.90;99.90;18.90;97258.00;;;;4930990;29;19931;-68
2021/09/05 07:56:05;;;;;;;;;;;18.10;99.90;19.10;97259.00;;;;4931285;29;19941;-68
2021/09/05 07:58:55;;;;;;;;;;;18.30;99.90;19.30;97263.00;;;;4929974;29;19923;-67
2021/09/05 08:01:44;;;;;;;;;;;18.50;99.90;19.70;97266.00;;;;4930753;29;19923;-67
2021/09/05 08:04:33;;;;;;;;;;;18.70;99.90;19.90;97275.00;;;;4929980;29;20001;-67
2021/09/05 08:07:22;;;;;;;;;;;19.00;99.90;20.30;97264.00;;;;4927278;29;19929;-67
2021/09/05 08:10:11;;;;;;;;;;;19.20;99.90;20.50;97272.00;;;;4917281;29;19927;-68
2021/09/05 08:13:00;;;;;;;5.57;4.43;;;19.50;99.90;20.60;97270.00;;;;4919304;29;20219;-66
2021/09/05 08:15:50;;;;;;;4.63;4.17;;;19.70;99.90;20.80;97265.00;;;;4924137;29;20213;-66
2021/09/05 08:18:39;;;;;;;5.53;4.33;;;19.90;99.90;20.90;97282.00;;;;4928836;29;20216;-65
2021/09/05 08:21:28;;;;;;;5.60;4.20;;;20.10;99.90;20.80;97273.00;;;;4917361;29;20235;-67
2021/09/05 08:24:17;;;;;;;6.43;4.53;;;20.20;99.90;21.30;97274.00;;;;4928745;29;20597;-65
2021/09/05 08:27:06;;;;;;;4.60;4.20;;;20.40;99.90;21.30;97280.00;;;;4928154;29;20205;-65
2021/09/05 08:29:57;;;;;;;6.10;4.87;;;20.60;99.90;21.50;97282.00;;;;4914015;29;20226;-66
2021/09/05 08:32:47;;;;;;;5.67;4.10;;;20.70;99.90;21.50;97277.00;;;;4917918;29;20216;-68
2021/09/05 08:35:36;;;;;;;4.30;3.87;;;20.80;99.90;21.70;97267.00;;;;4929541;29;20216;-66
2021/09/05 08:38:25;;;;;;;5.93;4.40;;;21.00;99.90;22.00;97279.00;;;;4928924;29;20991;-65
2021/09/05 08:41:14;;;;;;;4.20;3.53;;;21.20;99.90;22.00;97278.00;;;;4928827;29;20232;-66
2021/09/05 08:44:03;;;;;;;4.83;4.17;;;21.30;99.90;22.20;97282.00;;;;4929401;29;20212;-65
2021/09/05 08:46:53;;;;;;;4.73;4.20;;;21.40;99.90;22.40;97277.00;;;;4928650;29;20851;-66
2021/09/05 08:49:46;;;;;;;5.20;4.30;;;21.60;99.90;22.20;97280.00;;;;4923005;29;20240;-66
2021/09/05 08:52:36;;;;;;;5.30;3.83;;;21.70;99.90;22.30;97291.00;;;;4926700;29;20236;-65
2021/09/05 08:55:25;;;;;;;5.10;4.10;;;21.80;99.90;22.30;97283.00;;;;4919715;29;20680;-67
2021/09/05 08:58:14;;;;;;;7.00;4.47;;;21.90;99.90;22.70;97282.00;;;;4928493;29;20208;-70
2021/09/05 09:01:17;;;;;;;5.30;4.80;;;22.00;99.90;22.80;97285.00;;;;4928544;29;20233;-67
2021/09/05 09:04:10;;;;;;;4.30;3.60;;;22.10;99.90;22.90;97284.00;;;;4929819;29;20226;-67
2021/09/05 09:07:10;;;;;;;3.80;3.40;;;22.20;99.90;23.20;97280.00;;;;4928972;29;20213;-66
2021/09/05 09:10:01;;;;;;;4.33;3.93;;;22.30;99.90;23.40;97277.00;;;;4928166;29;20228;-66
2021/09/05 09:12:50;;;;;;;5.20;4.23;;;22.50;99.90;23.50;97279.00;;;;4930166;29;20299;-66
2021/09/05 09:15:39;;;;;;;6.40;3.93;;;22.70;99.90;23.60;97287.00;;;;4929814;29;20204;-67
2021/09/05 09:18:31;;;;;;;8.03;4.43;;;22.80;99.90;23.90;97280.00;;;;4927320;29;20235;-67
2021/09/05 09:21:20;;;;;;;11.73;5.60;;;23.00;99.90;24.00;97284.00;;;;4916873;29;20217;-67
2021/09/05 09:24:17;;;;;;;5.03;3.67;;;23.20;99.90;23.80;97276.00;;;;4927887;29;20212;-66
2021/09/05 09:27:07;;;;;;;3.97;3.50;;;23.30;95.70;23.90;97282.00;;;;4926049;29;20221;-67
2021/09/05 09:29:57;;;;;;;4.87;3.53;;;23.30;95.30;24.10;97277.00;;;;4929252;29;20236;-66
2021/09/05 09:32:51;;;;;;;4.20;3.70;;;23.10;95.40;23.90;97274.00;;;;4928803;29;20236;-65
2021/09/05 09:35:49;;;;;;;7.03;5.13;;;23.40;94.80;24.00;97276.00;;;;4916454;29;20215;-67
2021/09/05 09:38:38;;;;;;;4.50;3.53;;;23.40;93.40;24.40;97276.00;;;;4928499;29;20204;-68
2021/09/05 09:41:31;;;;;;;4.57;3.43;;;22.30;93.30;24.30;97285.00;;;;4927423;29;20235;-67
2021/09/05 09:44:20;;;;;;;8.57;4.33;;;23.70;93.00;24.50;97281.00;;;;4924823;29;20205;-67
2021/09/05 09:47:10;;;;;;;4.47;4.00;;;23.80;92.10;24.20;97275.00;;;;4915529;29;20208;-67
2021/09/05 09:50:03;;;;;;;4.73;3.63;;;24.00;91.60;24.30;97268.00;;;;4921485;29;20228;-67
2021/09/05 09:52:52;;;;;;;4.07;3.67;;;24.00;89.70;24.50;97265.00;;;;4927512;29;20209;-68
2021/09/05 09:55:41;;;;;;;5.23;3.50;;;24.00;85.90;24.40;97266.00;;;;4926811;29;20227;-68
2021/09/05 09:58:31;;;;;;;3.73;3.33;;;24.10;86.40;23.80;97258.00;;;;4914213;29;20676;-68
2021/09/05 10:01:22;;;;;;;4.63;3.43;;;24.10;85.40;23.70;97260.00;;;;4923243;29;21139;-67
2021/09/05 10:04:11;;;;;;;4.63;4.13;;;23.90;82.90;23.30;97258.00;;;;4924138;29;20208;-66
2021/09/05 10:07:01;;;;;;;3.67;3.37;;;23.60;80.40;24.40;97260.00;;;;4922338;29;20220;-67
2021/09/05 10:09:51;;;;;;;5.50;3.27;;;23.70;85.10;24.10;97257.00;;;;4924246;29;20608;-67
2021/09/05 10:12:41;;;;;;;3.97;3.27;;;23.70;81.10;25.40;97252.00;;;;4926589;29;20233;-66
2021/09/05 10:15:32;;;;;;;4.30;3.57;;;24.00;82.70;25.40;97287.00;;;;4926858;29;20220;-66
2021/09/05 10:18:22;;;;;;;5.17;3.67;;;24.30;83.50;24.00;97284.00;;;;4915888;29;20201;-68
2021/09/05 10:21:12;;;;;;;4.33;3.50;;;24.10;76.80;24.70;97257.00;;;;4925419;29;20255;-67
2021/09/05 10:24:01;;;;;;;4.23;3.77;;;24.10;77.20;24.10;97282.00;;;;4925464;29;20244;-68
2021/09/05 10:27:06;;;;;;;4.03;3.47;;;24.00;73.40;23.80;97276.00;;;;4925845;29;20209;-68
2021/09/05 10:30:14;;;;;;;6.97;4.03;;;23.80;76.40;25.10;97258.00;;;;4918622;29;20683;-68
2021/09/05 10:33:05;;;;;;;5.57;3.93;;;23.90;78.30;25.90;97236.00;;;;4925750;29;20681;-68
2021/09/05 10:36:05;;;;;;;3.90;3.10;;;24.40;77.80;25.20;97269.00;;;;4913527;29;20201;-67
2021/09/05 10:39:06;;;;;;;3.80;3.30;;;24.50;73.50;24.90;97270.00;;;;4928165;29;20213;-68
2021/09/05 10:41:54;;;;;;;5.00;2.97;;;24.60;71.40;25.10;97276.00;;;;4916045;29;20704;-67
2021/09/05 10:45:03;;;;;;;4.77;3.60;;;24.50;73.50;24.80;97276.00;;;;4920853;29;20688;-68
2021/09/05 10:47:52;;;;;;;3.60;2.97;;;24.40;73.30;24.60;97279.00;;;;4917305;29;20212;-67
2021/09/05 10:50:42;;;;;;;5.03;3.10;;;24.40;73.10;24.00;97275.00;;;;4921841;29;20220;-66
2021/09/05 10:53:37;;;;;;;3.07;2.73;;;24.20;70.40;24.30;97280.00;;;;4928002;29;20220;-65
2021/09/05 10:56:28;;;;;;;3.97;3.07;;;24.00;70.50;24.20;97230.00;;;;4927734;29;20222;-65
2021/09/05 10:59:19;;;;;;;7.07;2.90;;;23.90;71.90;26.00;97230.00;;;;4927919;29;20209;-67
2021/09/05 11:02:09;;;;;;;4.83;3.60;;;24.40;69.60;24.80;97218.00;;;;4926146;29;20259;-66
2021/09/05 11:04:58;;;;;;;3.70;2.97;;;24.80;64.90;25.00;97223.00;;;;4926090;29;20221;-66
2021/09/05 11:07:48;;;;;;;3.83;3.27;;;24.90;66.10;25.00;97281.00;;;;4927674;29;20219;-68
2021/09/05 11:10:50;;;;;;;4.47;3.70;;;24.80;64.30;25.50;97276.00;;;;4927497;29;20317;-67
2021/09/05 11:13:48;;;;;;;3.67;3.37;;;24.70;66.50;25.70;97280.00;;;;4922797;29;20205;-66
2021/09/05 11:16:40;;;;;;;32.60;17.83;;;24.90;66.30;27.00;97223.00;;;;4931714;29;20300;-67
2021/09/05 11:19:29;;;;;;;6.73;4.63;;;25.30;65.40;27.60;97238.00;;;;4931233;29;20218;-68
2021/09/05 11:22:20;;;;;;;4.17;3.67;;;25.90;67.20;27.20;97217.00;;;;4930265;29;20225;-67
2021/09/05 11:25:23;;;;;;;7.90;5.63;;;26.50;60.30;28.00;97275.00;;;;4931681;29;20590;-68
2021/09/05 11:28:12;;;;;;;6.47;3.83;;;26.70;62.70;27.10;97280.00;;;;4930050;29;20211;-67
2021/09/05 11:31:19;;;;;;;4.23;3.83;;;26.70;63.00;26.20;97278.00;;;;4930640;29;20234;-67
2021/09/05 11:34:08;;;;;;;5.20;3.83;;;26.50;60.90;26.60;97218.00;;;;4931957;29;20247;-67
2021/09/05 11:36:57;;;;;;;5.70;3.50;;;26.40;61.70;27.50;97221.00;;;;4930300;29;20211;-69
2021/09/05 11:39:52;;;;;;;4.93;3.60;;;26.50;64.10;27.40;97280.00;;;;4930746;29;20227;-67
2021/09/05 11:42:48;;;;;;;4.27;3.63;;;26.60;63.70;28.00;97222.00;;;;4929221;29;20221;-69
2021/09/05 11:45:40;;;;;;;4.00;3.60;;;26.80;64.20;27.40;97300.00;;;;4920716;29;20218;-66
2021/09/05 11:48:29;;;;;;;5.33;3.13;;;26.80;63.20;26.60;97292.00;;;;4926349;29;20218;-67
2021/09/05 11:51:18;;;;;;;4.47;3.27;;;26.60;62.40;27.70;97218.00;;;;4928231;29;20231;-68
2021/09/05 11:54:09;;;;;;;3.37;3.07;;;26.70;62.60;28.70;97270.00;;;;4931213;29;20219;-67
2021/09/05 11:56:58;;;;;;;4.68;4.05;;;27.10;62.60;28.70;97286.00;;;;4920204;29;20212;-68
2021/09/05 11:59:48;;;;;;;3.47;3.17;;;27.40;63.30;29.30;97222.00;;;;4930729;29;20589;-68
2021/09/05 12:02:39;;;;;;;4.32;3.25;;;27.70;62.40;28.80;97297.00;;;;4931082;29;20247;-67
2021/09/05 12:05:29;;;;;;;3.55;3.22;;;27.90;61.90;27.90;97295.00;;;;4930890;29;20196;-68
2021/09/05 12:08:18;;;;;;;3.80;3.35;;;27.70;60.00;28.30;97299.00;;;;4919955;29;20212;-69
2021/09/05 12:11:09;;;;;;;4.00;3.38;;;27.70;59.50;26.30;97299.00;;;;4929682;29;20343;-69
2021/09/05 12:13:58;;;;;;;9.23;3.30;;;27.30;58.90;25.10;97307.00;;;;4931006;29;20208;-68
2021/09/05 12:16:49;;;;;;;4.33;3.67;;;26.50;58.50;26.20;97227.00;;;;4929744;29;20206;-68
2021/09/05 12:19:56;;;;;;;4.67;3.80;;;26.30;59.00;26.20;97219.00;;;;4918864;29;20207;-68
2021/09/05 12:22:48;;;;;;;3.77;3.17;;;26.20;58.40;27.30;97219.00;;;;4919223;29;20228;-68
2021/09/05 12:25:37;;;;;;;4.20;3.80;;;26.30;58.80;28.30;97227.00;;;;4930417;29;20213;-68
2021/09/05 12:28:28;;;;;;;4.47;3.40;;;26.50;59.20;30.00;97218.00;;;;4929416;29;20222;-67
2021/09/05 12:31:17;;;;;;;5.15;3.75;;;27.20;61.10;27.10;97209.00;;;;4929153;29;20239;-69
2021/09/05 12:34:07;;;;;;;3.97;3.58;;;27.30;55.80;27.50;97213.00;;;;4918119;29;20224;-67
2021/09/05 12:36:57;;;;;;;4.30;3.50;;;27.30;55.60;29.50;97209.00;;;;4928904;29;20229;-67
2021/09/05 12:39:47;;;;;;;3.92;3.20;;;27.60;56.50;29.30;97205.00;;;;4929511;29;20709;-68
2021/09/05 12:42:36;;;;;;;3.88;3.47;;;28.30;56.60;30.70;97201.00;;;;4930152;29;20239;-68